sensor_id;sensor_type;location;lat;lon;timestamp;temperature;humidity
24091;DHT22;12272;52.426;17.100;2023-03-03T00:02:42;5.40;99.90
24091;DHT22;12272;52.426;17.100;2023-03-03T00:07:45;5.70;99.90
24091;DHT22;12272;52.426;17.100;2023-03-03T00:12:49;4.20;99.90
24091;DHT22;12272;52.426;17.100;2023-03-03T00:17:52;2.60;99.90
24091;DHT22;12272;52.426;17.100;2023-03-03T00:22:57;3.60;99.90
24091;DHT22;12272;52.426;17.100;2023-03-03T00:28:07;4.60;99.90
24091;DHT22;12272;52.426;17.100;2023-03-03T00:33:32;5.10;99.90
24091;DHT22;12272;52.426;17.100;2023-03-03T00:38:35;3.50;99.90
24091;DHT22;12272;52.426;17.100;2023-03-03T00:43:40;4.10;99.90
24091;DHT22;12272;52.426;17.100;2023-03-03T00:48:43;5.30;99.90
24091;DHT22;12272;52.426;17.100;2023-03-03T00:53:46;5.20;99.90
24091;DHT22;12272;52.426;17.100;2023-03-03T00:58:49;5.00;99.90
24091;DHT22;12272;52.426;17.100;2023-03-03T01:03:54;5.60;99.90
24091;DHT22;12272;52.426;17.100;2023-03-03T01:08:57;5.30;99.90
24091;DHT22;12272;52.426;17.100;2023-03-03T01:14:01;4.60;99.90
24091;DHT22;12272;52.426;17.100;2023-03-03T01:19:03;5.30;99.90
24091;DHT22;12272;52.426;17.100;2023-03-03T01:24:06;5.50;99.90
24091;DHT22;12272;52.426;17.100;2023-03-03T01:29:08;4.70;99.90
24091;DHT22;12272;52.426;17.100;2023-03-03T01:34:11;3.90;99.90
24091;DHT22;12272;52.426;17.100;2023-03-03T01:44:16;1.80;99.90
24091;DHT22;12272;52.426;17.100;2023-03-03T01:49:27;1.60;99.90
24091;DHT22;12272;52.426;17.100;2023-03-03T01:54:39;1.90;99.90
24091;DHT22;12272;52.426;17.100;2023-03-03T01:59:46;4.40;99.90
24091;DHT22;12272;52.426;17.100;2023-03-03T02:04:49;4.80;99.90
24091;DHT22;12272;52.426;17.100;2023-03-03T02:15:01;4.20;99.90
24091;DHT22;12272;52.426;17.100;2023-03-03T02:25:21;5.80;99.90
24091;DHT22;12272;52.426;17.100;2023-03-03T02:35:34;6.80;99.90
24091;DHT22;12272;52.426;17.100;2023-03-03T02:40:41;5.90;99.90
24091;DHT22;12272;52.426;17.100;2023-03-03T02:45:45;6.80;99.90
24091;DHT22;12272;52.426;17.100;2023-03-03T02:50:48;6.90;99.90
24091;DHT22;12272;52.426;17.100;2023-03-03T02:55:51;6.30;99.90
24091;DHT22;12272;52.426;17.100;2023-03-03T03:00:53;7.40;99.90
24091;DHT22;12272;52.426;17.100;2023-03-03T03:05:58;7.10;99.90
24091;DHT22;12272;52.426;17.100;2023-03-03T03:11:02;5.40;95.50
24091;DHT22;12272;52.426;17.100;2023-03-03T03:16:05;5.90;99.90
24091;DHT22;12272;52.426;17.100;2023-03-03T03:21:10;7.10;99.90
24091;DHT22;12272;52.426;17.100;2023-03-03T03:26:14;7.20;99.90
24091;DHT22;12272;52.426;17.100;2023-03-03T03:31:19;6.80;99.90
24091;DHT22;12272;52.426;17.100;2023-03-03T03:36:22;8.40;99.90
24091;DHT22;12272;52.426;17.100;2023-03-03T03:41:25;8.80;99.90
24091;DHT22;12272;52.426;17.100;2023-03-03T03:46:28;6.80;90.90
24091;DHT22;12272;52.426;17.100;2023-03-03T03:51:31;6.20;97.90
24091;DHT22;12272;52.426;17.100;2023-03-03T03:56:35;6.40;99.90
24091;DHT22;12272;52.426;17.100;2023-03-03T04:01:38;5.20;99.90
24091;DHT22;12272;52.426;17.100;2023-03-03T04:06:41;5.20;99.90
24091;DHT22;12272;52.426;17.100;2023-03-03T04:11:44;5.80;99.90
24091;DHT22;12272;52.426;17.100;2023-03-03T04:16:48;5.30;99.90
24091;DHT22;12272;52.426;17.100;2023-03-03T04:21:51;5.80;99.90
24091;DHT22;12272;52.426;17.100;2023-03-03T04:26:54;5.40;99.90
24091;DHT22;12272;52.426;17.100;2023-03-03T04:31:56;5.40;99.90
24091;DHT22;12272;52.426;17.100;2023-03-03T04:36:59;6.90;99.90
24091;DHT22;12272;52.426;17.100;2023-03-03T04:42:04;5.30;99.90
24091;DHT22;12272;52.426;17.100;2023-03-03T04:47:07;6.50;99.90
24091;DHT22;12272;52.426;17.100;2023-03-03T04:52:10;6.50;97.90
24091;DHT22;12272;52.426;17.100;2023-03-03T04:57:13;5.90;99.90
24091;DHT22;12272;52.426;17.100;2023-03-03T05:02:16;7.60;99.50
24091;DHT22;12272;52.426;17.100;2023-03-03T05:07:20;7.70;99.90
24091;DHT22;12272;52.426;17.100;2023-03-03T05:12:23;7.60;99.80
24091;DHT22;12272;52.426;17.100;2023-03-03T05:17:25;7.60;99.90
24091;DHT22;12272;52.426;17.100;2023-03-03T05:22:28;6.60;99.90
24091;DHT22;12272;52.426;17.100;2023-03-03T05:27:30;7.70;99.90
24091;DHT22;12272;52.426;17.100;2023-03-03T05:32:34;7.20;98.20
24091;DHT22;12272;52.426;17.100;2023-03-03T05:37:37;6.80;99.20
24091;DHT22;12272;52.426;17.100;2023-03-03T05:42:44;6.40;99.90
24091;DHT22;12272;52.426;17.100;2023-03-03T05:47:47;6.10;99.90
24091;DHT22;12272;52.426;17.100;2023-03-03T05:52:51;5.60;99.90
24091;DHT22;12272;52.426;17.100;2023-03-03T05:57:54;6.60;99.90
24091;DHT22;12272;52.426;17.100;2023-03-03T06:02:56;6.70;99.90
24091;DHT22;12272;52.426;17.100;2023-03-03T06:08:00;7.20;86.10
24091;DHT22;12272;52.426;17.100;2023-03-03T06:13:02;8.50;78.80
24091;DHT22;12272;52.426;17.100;2023-03-03T06:18:05;8.50;76.10
24091;DHT22;12272;52.426;17.100;2023-03-03T06:23:08;7.30;78.90
24091;DHT22;12272;52.426;17.100;2023-03-03T06:28:11;6.70;90.90
24091;DHT22;12272;52.426;17.100;2023-03-03T06:33:14;6.60;89.40
24091;DHT22;12272;52.426;17.100;2023-03-03T06:38:18;6.60;90.20
24091;DHT22;12272;52.426;17.100;2023-03-03T06:43:20;6.50;90.30
24091;DHT22;12272;52.426;17.100;2023-03-03T06:48:23;7.20;88.40
24091;DHT22;12272;52.426;17.100;2023-03-03T06:53:26;5.50;99.90
24091;DHT22;12272;52.426;17.100;2023-03-03T06:58:28;7.90;97.50
24091;DHT22;12272;52.426;17.100;2023-03-03T07:03:34;8.40;89.00
24091;DHT22;12272;52.426;17.100;2023-03-03T07:08:39;7.10;80.00
24091;DHT22;12272;52.426;17.100;2023-03-03T07:13:47;6.50;91.20
24091;DHT22;12272;52.426;17.100;2023-03-03T07:18:56;8.40;81.40
24091;DHT22;12272;52.426;17.100;2023-03-03T07:24:13;7.80;82.30
24091;DHT22;12272;52.426;17.100;2023-03-03T07:29:23;7.90;95.90
24091;DHT22;12272;52.426;17.100;2023-03-03T07:34:37;9.50;99.50
24091;DHT22;12272;52.426;17.100;2023-03-03T07:39:44;9.50;94.00
24091;DHT22;12272;52.426;17.100;2023-03-03T07:44:50;10.10;97.70
24091;DHT22;12272;52.426;17.100;2023-03-03T07:49:55;10.40;97.10
24091;DHT22;12272;52.426;17.100;2023-03-03T07:55:01;9.40;99.90
24091;DHT22;12272;52.426;17.100;2023-03-03T08:10:49;8.50;99.90
24091;DHT22;12272;52.426;17.100;2023-03-03T08:21:26;9.70;99.90
24091;DHT22;12272;52.426;17.100;2023-03-03T08:26:28;8.90;99.90
24091;DHT22;12272;52.426;17.100;2023-03-03T08:31:31;9.90;99.90
24091;DHT22;12272;52.426;17.100;2023-03-03T08:36:43;9.10;99.90
24091;DHT22;12272;52.426;17.100;2023-03-03T08:41:45;10.40;99.90
24091;DHT22;12272;52.426;17.100;2023-03-03T08:46:49;9.40;99.90
24091;DHT22;12272;52.426;17.100;2023-03-03T08:51:51;8.40;99.90
24091;DHT22;12272;52.426;17.100;2023-03-03T08:56:54;7.80;99.30
24091;DHT22;12272;52.426;17.100;2023-03-03T09:01:56;7.90;99.90
24091;DHT22;12272;52.426;17.100;2023-03-03T09:06:59;7.10;99.90
24091;DHT22;12272;52.426;17.100;2023-03-03T09:12:28;6.60;99.90
24091;DHT22;12272;52.426;17.100;2023-03-03T09:17:34;6.40;99.90
24091;DHT22;12272;52.426;17.100;2023-03-03T09:22:37;5.60;99.90
24091;DHT22;12272;52.426;17.100;2023-03-03T09:27:40;5.50;99.90
24091;DHT22;12272;52.426;17.100;2023-03-03T09:32:43;5.90;99.90
24091;DHT22;12272;52.426;17.100;2023-03-03T09:37:49;5.90;99.90
24091;DHT22;12272;52.426;17.100;2023-03-03T09:48:24;8.60;99.90
24091;DHT22;12272;52.426;17.100;2023-03-03T10:15:42;6.80;99.90
24091;DHT22;12272;52.426;17.100;2023-03-03T10:26:18;8.10;99.90
24091;DHT22;12272;52.426;17.100;2023-03-03T10:31:47;8.50;99.90
24091;DHT22;12272;52.426;17.100;2023-03-03T10:42:40;9.10;99.90
24091;DHT22;12272;52.426;17.100;2023-03-03T10:53:31;10.20;99.90
24091;DHT22;12272;52.426;17.100;2023-03-03T11:04:12;9.30;99.90
24091;DHT22;12272;52.426;17.100;2023-03-03T11:09:32;10.20;99.90
24091;DHT22;12272;52.426;17.100;2023-03-03T11:14:50;9.40;99.90
24091;DHT22;12272;52.426;17.100;2023-03-03T11:25:31;10.90;86.30
24091;DHT22;12272;52.426;17.100;2023-03-03T11:41:40;10.30;90.60
24091;DHT22;12272;52.426;17.100;2023-03-03T11:46:57;10.40;87.20
24091;DHT22;12272;52.426;17.100;2023-03-03T11:52:27;10.90;84.50
24091;DHT22;12272;52.426;17.100;2023-03-03T12:03:10;11.20;64.70
24091;DHT22;12272;52.426;17.100;2023-03-03T12:08:32;9.90;82.00
24091;DHT22;12272;52.426;17.100;2023-03-03T12:13:57;10.20;80.50
24091;DHT22;12272;52.426;17.100;2023-03-03T12:40:27;10.40;83.40
24091;DHT22;12272;52.426;17.100;2023-03-03T12:50:59;9.50;93.90
24091;DHT22;12272;52.426;17.100;2023-03-03T12:56:10;9.10;97.80
24091;DHT22;12272;52.426;17.100;2023-03-03T13:01:40;9.30;97.00
24091;DHT22;12272;52.426;17.100;2023-03-03T13:06:58;9.00;97.20
24091;DHT22;12272;52.426;17.100;2023-03-03T13:12:49;10.00;99.90
24091;DHT22;12272;52.426;17.100;2023-03-03T13:23:09;10.40;99.90
24091;DHT22;12272;52.426;17.100;2023-03-03T13:28:33;10.50;98.80
24091;DHT22;12272;52.426;17.100;2023-03-03T13:33:43;10.60;99.20
24091;DHT22;12272;52.426;17.100;2023-03-03T13:38:56;10.70;99.90
24091;DHT22;12272;52.426;17.100;2023-03-03T13:44:11;11.10;97.20
24091;DHT22;12272;52.426;17.100;2023-03-03T13:55:13;10.50;99.80
24091;DHT22;12272;52.426;17.100;2023-03-03T14:05:56;11.10;99.90
24091;DHT22;12272;52.426;17.100;2023-03-03T14:11:16;10.10;99.90
24091;DHT22;12272;52.426;17.100;2023-03-03T14:16:51;10.20;99.90
24091;DHT22;12272;52.426;17.100;2023-03-03T14:27:25;9.80;99.90
24091;DHT22;12272;52.426;17.100;2023-03-03T14:32:28;10.50;99.90
24091;DHT22;12272;52.426;17.100;2023-03-03T14:37:46;10.40;99.90
24091;DHT22;12272;52.426;17.100;2023-03-03T14:47:54;9.50;99.90
24091;DHT22;12272;52.426;17.100;2023-03-03T14:58:31;10.10;99.90
24091;DHT22;12272;52.426;17.100;2023-03-03T15:03:36;10.60;87.50
24091;DHT22;12272;52.426;17.100;2023-03-03T15:08:41;10.90;90.60
24091;DHT22;12272;52.426;17.100;2023-03-03T15:13:43;10.20;87.70
24091;DHT22;12272;52.426;17.100;2023-03-03T15:34:39;10.70;93.40
24091;DHT22;12272;52.426;17.100;2023-03-03T16:06:36;9.90;99.90
24091;DHT22;12272;52.426;17.100;2023-03-03T16:17:20;9.50;99.90
24091;DHT22;12272;52.426;17.100;2023-03-03T16:28:18;9.20;95.50
24091;DHT22;12272;52.426;17.100;2023-03-03T16:38:41;10.30;99.90
24091;DHT22;12272;52.426;17.100;2023-03-03T16:44:15;10.30;99.90
24091;DHT22;12272;52.426;17.100;2023-03-03T16:49:37;10.10;94.30
24091;DHT22;12272;52.426;17.100;2023-03-03T16:55:31;10.60;97.30
24091;DHT22;12272;52.426;17.100;2023-03-03T17:10:56;9.30;99.90
24091;DHT22;12272;52.426;17.100;2023-03-03T17:16:13;10.10;99.90
24091;DHT22;12272;52.426;17.100;2023-03-03T17:27:10;9.50;95.80
24091;DHT22;12272;52.426;17.100;2023-03-03T18:15:00;0.80;99.90
24091;DHT22;12272;52.426;17.100;2023-03-03T18:25:15;1.00;99.90
24091;DHT22;12272;52.426;17.100;2023-03-03T18:41:17;0.80;99.90
24091;DHT22;12272;52.426;17.100;2023-03-03T19:17:48;9.00;99.90
24091;DHT22;12272;52.426;17.100;2023-03-03T19:23:03;9.20;99.90
24091;DHT22;12272;52.426;17.100;2023-03-03T19:39:11;10.80;99.90
24091;DHT22;12272;52.426;17.100;2023-03-03T19:55:20;10.90;99.90
24091;DHT22;12272;52.426;17.100;2023-03-03T20:00:36;11.40;99.60
24091;DHT22;12272;52.426;17.100;2023-03-03T20:05:50;11.00;97.70
24091;DHT22;12272;52.426;17.100;2023-03-03T20:11:14;11.80;99.90
24091;DHT22;12272;52.426;17.100;2023-03-03T20:16:27;12.00;99.90
24091;DHT22;12272;52.426;17.100;2023-03-03T20:21:39;11.30;99.90
24091;DHT22;12272;52.426;17.100;2023-03-03T20:32:29;12.00;99.90
24091;DHT22;12272;52.426;17.100;2023-03-03T20:54:06;11.20;99.90
24091;DHT22;12272;52.426;17.100;2023-03-03T21:04:33;12.20;95.00
24091;DHT22;12272;52.426;17.100;2023-03-03T21:09:38;12.30;92.50
24091;DHT22;12272;52.426;17.100;2023-03-03T21:14:40;11.70;98.40
24091;DHT22;12272;52.426;17.100;2023-03-03T21:19:43;12.10;98.10
24091;DHT22;12272;52.426;17.100;2023-03-03T21:30:05;11.80;95.70
24091;DHT22;12272;52.426;17.100;2023-03-03T21:40:28;11.60;94.40
24091;DHT22;12272;52.426;17.100;2023-03-03T21:45:31;11.40;99.90
24091;DHT22;12272;52.426;17.100;2023-03-03T21:50:33;11.50;97.70
24091;DHT22;12272;52.426;17.100;2023-03-03T21:55:37;12.00;97.00
24091;DHT22;12272;52.426;17.100;2023-03-03T22:00:39;12.20;97.10
24091;DHT22;12272;52.426;17.100;2023-03-03T22:05:42;11.40;94.40
24091;DHT22;12272;52.426;17.100;2023-03-03T22:10:45;11.70;98.40
24091;DHT22;12272;52.426;17.100;2023-03-03T22:15:52;11.60;95.50
24091;DHT22;12272;52.426;17.100;2023-03-03T22:20:56;11.20;98.20
24091;DHT22;12272;52.426;17.100;2023-03-03T22:25:59;11.30;97.70
24091;DHT22;12272;52.426;17.100;2023-03-03T22:31:03;11.80;96.10
24091;DHT22;12272;52.426;17.100;2023-03-03T22:36:06;12.30;97.80
24091;DHT22;12272;52.426;17.100;2023-03-03T22:41:09;12.00;94.10
24091;DHT22;12272;52.426;17.100;2023-03-03T22:46:13;11.30;94.70
24091;DHT22;12272;52.426;17.100;2023-03-03T22:51:16;11.70;99.10
24091;DHT22;12272;52.426;17.100;2023-03-03T22:56:19;11.50;97.90
24091;DHT22;12272;52.426;17.100;2023-03-03T23:01:22;11.70;96.20
24091;DHT22;12272;52.426;17.100;2023-03-03T23:06:24;12.00;97.20
24091;DHT22;12272;52.426;17.100;2023-03-03T23:11:27;12.30;95.00
24091;DHT22;12272;52.426;17.100;2023-03-03T23:16:29;11.70;90.70
24091;DHT22;12272;52.426;17.100;2023-03-03T23:21:32;11.20;91.40
24091;DHT22;12272;52.426;17.100;2023-03-03T23:26:35;11.10;94.80
24091;DHT22;12272;52.426;17.100;2023-03-03T23:31:37;11.00;98.20
24091;DHT22;12272;52.426;17.100;2023-03-03T23:36:40;11.50;99.30
24091;DHT22;12272;52.426;17.100;2023-03-03T23:41:43;12.10;97.20
24091;DHT22;12272;52.426;17.100;2023-03-03T23:46:46;12.00;92.50
24091;DHT22;12272;52.426;17.100;2023-03-03T23:51:48;11.30;96.90
24091;DHT22;12272;52.426;17.100;2023-03-03T23:56:51;12.10;97.70
